createdAt,value
2017-04-11T00:00:53.451Z,2.88
2017-04-11T00:01:53.983Z,3.23
2017-04-11T00:02:54.517Z,2.10
2017-04-11T00:03:55.045Z,1.93
2017-04-11T00:04:55.575Z,2.09
2017-04-11T00:05:56.104Z,1.87
2017-04-11T00:06:56.633Z,3.01
2017-04-11T00:07:57.163Z,1.94
2017-04-11T00:08:57.696Z,1.56
2017-04-11T00:09:58.225Z,1.28
2017-04-11T00:10:58.908Z,1.75
2017-04-11T00:11:59.288Z,1.94
2017-04-11T00:12:59.820Z,1.93
2017-04-11T00:14:00.356Z,2.12
2017-04-11T00:15:00.884Z,2.85
2017-04-11T00:16:01.421Z,1.65
2017-04-11T00:17:03.752Z,1.93
2017-04-11T00:18:02.492Z,1.55
2017-04-11T00:19:03.025Z,2.01
2017-04-11T00:20:03.575Z,1.93
2017-04-11T00:21:04.105Z,1.55
2017-04-11T00:22:04.639Z,1.46
2017-04-11T00:23:05.155Z,1.93
2017-04-11T00:24:05.686Z,2.02
2017-04-11T00:25:06.219Z,1.55
2017-04-11T00:26:06.753Z,2.01
2017-04-11T00:27:07.281Z,1.56
2017-04-11T00:28:07.811Z,1.74
2017-04-11T00:29:08.342Z,1.37
2017-04-11T00:30:08.874Z,1.09
2017-04-11T00:31:09.400Z,1.56
2017-04-11T00:32:09.935Z,2.21
2017-04-11T00:33:10.462Z,1.45
2017-04-11T00:34:10.992Z,1.09
2017-04-11T00:35:11.525Z,1.37
2017-04-11T00:36:12.056Z,1.09
2017-04-11T00:37:12.584Z,1.09
2017-04-11T00:38:13.114Z,0.99
2017-04-11T00:39:13.641Z,1.09
2017-04-11T00:40:14.174Z,1.09
2017-04-11T00:41:14.705Z,1.18
2017-04-11T00:42:15.239Z,1.65
2017-04-11T00:43:15.773Z,1.65
2017-04-11T00:44:16.306Z,2.10
2017-04-11T00:45:16.829Z,1.18
2017-04-11T00:46:17.362Z,0.90
2017-04-11T00:47:17.891Z,1.74
2017-04-11T00:48:18.422Z,1.65
2017-04-11T00:49:19.108Z,2.01
2017-04-11T00:50:19.480Z,1.65
2017-04-11T00:51:20.161Z,1.92
2017-04-11T00:52:20.541Z,3.00
2017-04-11T00:53:21.070Z,2.68
2017-04-11T00:54:21.748Z,1.92
2017-04-11T00:55:22.132Z,1.09
2017-04-11T00:56:22.666Z,1.83
2017-04-11T00:57:23.200Z,1.74
2017-04-11T00:58:23.737Z,2.39
2017-04-11T00:59:24.271Z,1.37
2017-04-11T01:00:24.808Z,1.93
2017-04-11T01:01:25.492Z,1.71
2017-04-11T01:02:25.868Z,1.36
2017-04-11T01:03:26.553Z,1.37
2017-04-11T01:04:26.934Z,1.27
2017-04-11T01:05:27.469Z,1.09
2017-04-11T01:06:29.196Z,1.27
2017-04-11T01:07:28.677Z,1.37
2017-04-11T01:08:29.060Z,1.56
2017-04-11T01:09:29.589Z,1.46
2017-04-11T01:10:30.124Z,1.27
2017-04-11T01:11:30.649Z,0.99
2017-04-11T01:12:31.184Z,1.07
2017-04-11T01:13:31.712Z,1.46
2017-04-11T01:14:32.245Z,1.27
2017-04-11T01:15:32.776Z,1.55
2017-04-11T01:16:33.311Z,1.74
2017-04-11T01:17:34.090Z,1.37
2017-04-11T01:18:34.371Z,1.83
2017-04-11T01:19:35.053Z,1.55
2017-04-11T01:20:35.437Z,1.90
2017-04-11T01:21:35.965Z,2.11
2017-04-11T01:22:36.493Z,2.02
2017-04-11T01:23:37.024Z,2.12
2017-04-11T01:24:37.581Z,2.20
2017-04-11T01:25:38.082Z,1.93
2017-04-11T01:26:38.617Z,1.74
2017-04-11T01:27:39.145Z,1.36
2017-04-11T01:28:39.677Z,1.55
2017-04-11T01:29:40.208Z,1.48
2017-04-11T01:30:40.743Z,1.93
2017-04-11T01:31:41.274Z,1.84
2017-04-11T01:32:41.803Z,1.74
2017-04-11T01:33:42.334Z,1.65
2017-04-11T01:34:42.865Z,1.27
2017-04-11T01:35:43.397Z,1.64
2017-04-11T01:36:43.929Z,1.83
2017-04-11T01:37:44.464Z,1.84
2017-04-11T01:38:45.002Z,1.37
2017-04-11T01:39:45.683Z,1.09
2017-04-11T01:40:46.070Z,1.56
2017-04-11T01:41:46.598Z,1.37
2017-04-11T01:42:47.132Z,2.10
2017-04-11T01:43:47.665Z,1.55
2017-04-11T01:44:48.194Z,1.45
2017-04-11T01:45:48.724Z,1.36
2017-04-11T01:46:49.258Z,1.18
2017-04-11T01:47:49.825Z,1.36
2017-04-11T01:48:50.322Z,1.91
2017-04-11T01:49:50.850Z,1.74
2017-04-11T01:50:51.385Z,1.27
2017-04-11T01:51:51.915Z,1.73
2017-04-11T01:52:52.596Z,1.18
2017-04-11T01:53:52.975Z,1.46
2017-04-11T01:54:53.512Z,1.09
2017-04-11T01:55:54.038Z,1.64
2017-04-11T01:56:54.574Z,1.55
2017-04-11T01:57:55.101Z,1.18
2017-04-11T01:58:55.631Z,1.56
2017-04-11T01:59:56.164Z,1.65
2017-04-11T02:00:56.707Z,1.74
2017-04-11T02:01:57.224Z,1.36
2017-04-11T02:02:57.757Z,1.36
2017-04-11T02:03:58.299Z,0.99
2017-04-11T02:04:58.827Z,0.90
2017-04-11T02:05:59.353Z,0.62
2017-04-11T02:06:59.888Z,1.00
2017-04-11T02:08:00.414Z,0.99
2017-04-11T02:09:00.952Z,0.71
2017-04-11T02:10:01.481Z,0.53
2017-04-11T02:11:02.013Z,0.25
2017-04-11T02:12:02.698Z,0.81
2017-04-11T02:13:03.229Z,1.27
2017-04-11T02:14:03.608Z,1.09
2017-04-11T02:15:04.139Z,1.46
2017-04-11T02:16:04.669Z,1.18
2017-04-11T02:17:05.204Z,1.46
2017-04-11T02:18:05.735Z,1.84
2017-04-11T02:19:06.265Z,1.92
2017-04-11T02:20:06.798Z,1.46
2017-04-11T02:21:07.339Z,0.95
2017-04-11T02:22:07.870Z,0.90
2017-04-11T02:23:08.404Z,0.71
2017-04-11T02:24:09.113Z,0.81
2017-04-11T02:25:09.472Z,1.08
2017-04-11T02:26:10.008Z,2.11
2017-04-11T02:27:10.532Z,1.73
2017-04-11T02:28:11.063Z,1.46
2017-04-11T02:29:11.595Z,1.46
2017-04-11T02:30:12.136Z,1.09
2017-04-11T02:31:12.660Z,0.90
2017-04-11T02:32:13.195Z,1.18
2017-04-11T02:33:13.724Z,1.27
2017-04-11T02:34:14.246Z,1.46
2017-04-11T02:35:14.777Z,0.81
2017-04-11T02:36:15.312Z,0.90
2017-04-11T02:37:15.991Z,0.62
2017-04-11T02:38:16.524Z,0.81
2017-04-11T02:39:16.906Z,1.73
2017-04-11T02:40:17.627Z,1.27
2017-04-11T02:41:17.970Z,1.45
2017-04-11T02:42:18.498Z,1.36
2017-04-11T02:43:19.036Z,1.27
2017-04-11T02:44:19.562Z,1.27
2017-04-11T02:45:20.096Z,1.27
2017-04-11T02:46:20.648Z,1.36
2017-04-11T02:47:21.155Z,1.18
2017-04-11T02:48:21.684Z,1.27
2017-04-11T02:49:22.221Z,1.09
2017-04-11T02:50:22.746Z,1.65
2017-04-11T02:51:23.280Z,1.37
2017-04-11T02:52:23.813Z,1.18
2017-04-11T02:53:24.345Z,0.99
2017-04-11T02:54:25.024Z,0.71
2017-04-11T02:55:25.401Z,1.37
2017-04-11T02:56:25.931Z,0.90
2017-04-11T02:57:26.468Z,1.46
2017-04-11T02:58:26.999Z,1.09
2017-04-11T02:59:27.531Z,0.81
2017-04-11T03:00:28.098Z,0.90
2017-04-11T03:01:28.602Z,0.90
2017-04-11T03:02:29.136Z,0.99
2017-04-11T03:03:29.670Z,0.90
2017-04-11T03:04:30.350Z,0.71
2017-04-11T03:05:30.736Z,0.43
2017-04-11T03:06:31.264Z,0.90
2017-04-11T03:07:31.793Z,1.18
2017-04-11T03:08:32.475Z,0.71
2017-04-11T03:09:33.003Z,0.52
2017-04-11T03:10:33.391Z,0.53
2017-04-11T03:11:33.916Z,1.37
2017-04-11T03:12:34.448Z,1.09
2017-04-11T03:13:34.976Z,0.81
2017-04-11T03:14:35.509Z,0.81
2017-04-11T03:15:36.039Z,0.62
2017-04-11T03:16:36.567Z,0.34
2017-04-11T03:17:37.250Z,0.52
2017-04-11T03:18:37.627Z,0.99
2017-04-11T03:19:38.160Z,0.81
2017-04-11T03:20:38.842Z,0.44
2017-04-11T03:21:39.225Z,0.71
2017-04-11T03:22:39.758Z,0.52
2017-04-11T03:23:40.289Z,0.53
2017-04-11T03:24:40.820Z,0.44
2017-04-11T03:25:41.350Z,0.25
2017-04-11T03:26:41.886Z,0.44
2017-04-11T03:27:42.417Z,0.44
2017-04-11T03:28:42.945Z,0.71
2017-04-11T03:29:43.480Z,1.09
2017-04-11T03:30:44.008Z,1.00
2017-04-11T03:31:44.534Z,0.71
2017-04-11T03:32:45.106Z,1.27
2017-04-11T03:33:45.599Z,0.90
2017-04-11T03:34:46.127Z,0.81
2017-04-11T03:35:46.659Z,1.18
2017-04-11T03:36:47.187Z,0.99
2017-04-11T03:37:47.727Z,0.89
2017-04-11T03:38:48.280Z,1.00
2017-04-11T03:39:48.784Z,0.44
2017-04-11T03:40:49.467Z,0.44
2017-04-11T03:41:49.858Z,0.07
2017-04-11T03:42:50.545Z,0.07
2017-04-11T03:43:50.936Z,0.34
2017-04-11T03:44:51.461Z,0.34
2017-04-11T03:45:51.996Z,0.34
2017-04-11T03:46:52.527Z,0.53
2017-04-11T03:47:53.062Z,0.25
2017-04-11T03:48:54.041Z,0.07
2017-04-11T03:49:54.125Z,0.07
2017-04-11T03:50:54.655Z,0.07
2017-04-11T03:51:55.187Z,0.07
2017-04-11T03:52:55.718Z,0.44
2017-04-11T03:53:56.247Z,0.99
2017-04-11T03:54:56.779Z,0.72
2017-04-11T03:55:57.317Z,0.62
2017-04-11T03:56:57.878Z,0.90
2017-04-11T03:57:58.379Z,0.25
2017-04-11T03:58:58.907Z,0.34
2017-04-11T03:59:59.438Z,0.71
2017-04-11T04:00:59.975Z,0.62
2017-04-11T04:02:00.502Z,0.81
2017-04-11T04:03:01.036Z,0.62
2017-04-11T04:04:01.568Z,0.25
2017-04-11T04:05:02.247Z,0.34
2017-04-11T04:06:02.640Z,0.07
2017-04-11T04:07:03.162Z,0.07
2017-04-11T04:08:03.693Z,0.07
2017-04-11T04:09:04.253Z,0.07
2017-04-11T04:10:04.754Z,0.07
2017-04-11T04:11:05.287Z,0.07
2017-04-11T04:12:05.967Z,0.16
2017-04-11T04:13:06.350Z,0.44
2017-04-11T04:14:06.881Z,0.53
2017-04-11T04:15:07.406Z,0.62
2017-04-11T04:16:07.950Z,0.34
2017-04-11T04:17:08.475Z,0.52
2017-04-11T04:18:09.008Z,0.25
2017-04-11T04:19:09.536Z,0.25
2017-04-11T04:20:10.067Z,0.07
2017-04-11T04:21:10.599Z,0.72
2017-04-11T04:22:11.136Z,0.44
2017-04-11T04:23:11.818Z,0.07
2017-04-11T04:24:12.205Z,0.24
2017-04-11T04:25:12.742Z,0.71
2017-04-11T04:26:13.270Z,0.52
2017-04-11T04:27:13.800Z,0.71
2017-04-11T04:28:14.337Z,0.62
2017-04-11T04:29:14.865Z,0.99
2017-04-11T04:30:15.402Z,1.09
2017-04-11T04:31:15.932Z,0.44
2017-04-11T04:32:16.466Z,0.07
2017-04-11T04:33:17.150Z,0.24
2017-04-11T04:34:17.529Z,0.52
2017-04-11T04:35:18.060Z,0.07
2017-04-11T04:36:18.594Z,0.34
2017-04-11T04:37:19.120Z,0.34
2017-04-11T04:38:19.656Z,0.07
2017-04-11T04:39:20.188Z,0.07
2017-04-11T04:40:20.719Z,0.07
2017-04-11T04:41:21.399Z,0.25
2017-04-11T04:42:21.782Z,0.62
2017-04-11T04:43:22.313Z,0.62
2017-04-11T04:44:22.846Z,0.62
2017-04-11T04:45:23.524Z,0.07
2017-04-11T04:46:23.911Z,0.07
2017-04-11T04:47:24.441Z,0.07
2017-04-11T04:48:24.976Z,0.06
2017-04-11T04:49:25.502Z,0.06
2017-04-11T04:50:26.039Z,0.06
2017-04-11T04:51:26.718Z,0.15
2017-04-11T04:52:27.102Z,0.15
2017-04-11T04:53:27.634Z,0.44
2017-04-11T04:54:28.168Z,0.44
2017-04-11T04:55:28.690Z,0.52
2017-04-11T04:56:29.225Z,0.07
2017-04-11T04:57:29.759Z,0.06
2017-04-11T04:58:30.290Z,0.61
2017-04-11T04:59:30.837Z,0.34
2017-04-11T05:00:31.356Z,0.44
2017-04-11T05:01:31.884Z,0.44
2017-04-11T05:02:32.425Z,0.07
2017-04-11T05:03:32.978Z,0.07
2017-04-11T05:04:33.485Z,0.07
2017-04-11T05:05:34.021Z,0.06
2017-04-11T05:06:34.553Z,0.34
2017-04-11T05:07:35.083Z,0.06
2017-04-11T05:08:35.621Z,0.24
2017-04-11T05:09:36.162Z,0.43
2017-04-11T05:10:36.685Z,0.25
2017-04-11T05:11:37.215Z,0.06
2017-04-11T05:12:37.743Z,0.06
2017-04-11T05:13:38.274Z,0.07
2017-04-11T05:14:38.807Z,0.34
2017-04-11T05:15:39.339Z,0.07
2017-04-11T05:16:39.868Z,0.07
2017-04-11T05:17:40.398Z,0.25
2017-04-11T05:18:40.930Z,0.52
2017-04-11T05:19:41.610Z,0.89
2017-04-11T05:20:42.005Z,0.52
2017-04-11T05:21:42.523Z,0.43
2017-04-11T05:22:43.060Z,0.62
2017-04-11T05:23:43.636Z,0.62
2017-04-11T05:24:44.117Z,0.44
2017-04-11T05:25:44.650Z,0.52
2017-04-11T05:26:45.179Z,0.62
2017-04-11T05:27:45.713Z,0.52
2017-04-11T05:28:46.246Z,0.81
2017-04-11T05:29:47.109Z,0.44
2017-04-11T05:30:47.308Z,0.81
2017-04-11T05:31:47.837Z,0.44
2017-04-11T05:32:48.368Z,0.71
2017-04-11T05:33:48.907Z,1.45
2017-04-11T05:34:49.435Z,0.99
2017-04-11T05:35:49.963Z,0.81
2017-04-11T05:36:50.491Z,1.09
2017-04-11T05:37:51.025Z,0.90
2017-04-11T05:38:51.561Z,0.81
2017-04-11T05:39:52.087Z,0.81
2017-04-11T05:40:52.630Z,0.44
2017-04-11T05:41:53.157Z,0.81
2017-04-11T05:42:53.690Z,1.18
2017-04-11T05:43:54.230Z,1.09
2017-04-11T05:44:54.757Z,0.53
2017-04-11T05:45:55.300Z,0.71
2017-04-11T05:46:55.834Z,0.81
2017-04-11T05:47:56.367Z,0.15
2017-04-11T05:48:56.901Z,1.27
2017-04-11T05:49:57.428Z,1.00
2017-04-11T05:50:57.966Z,0.25
2017-04-11T05:51:58.490Z,0.99
2017-04-11T05:52:59.018Z,0.71
2017-04-11T05:53:59.567Z,1.27
2017-04-11T05:55:00.082Z,1.22
2017-04-11T05:56:00.608Z,2.02
2017-04-11T05:57:01.142Z,1.64
2017-04-11T05:58:01.675Z,1.27
2017-04-11T05:59:02.205Z,1.09
2017-04-11T06:00:02.734Z,0.99
2017-04-11T06:01:03.412Z,1.00
2017-04-11T06:02:03.830Z,1.65
2017-04-11T06:03:04.335Z,0.90
2017-04-11T06:04:04.861Z,0.71
2017-04-11T06:05:05.394Z,0.34
2017-04-11T06:06:05.923Z,0.44
2017-04-11T06:07:06.461Z,0.71
2017-04-11T06:08:06.989Z,0.72
2017-04-11T06:09:07.525Z,0.71
2017-04-11T06:10:08.059Z,0.71
2017-04-11T06:11:08.582Z,0.90
2017-04-11T06:12:09.111Z,1.45
2017-04-11T06:13:09.642Z,2.01
2017-04-11T06:14:10.176Z,1.27
2017-04-11T06:16:11.246Z,0.90
2017-04-11T06:17:11.769Z,1.27
2017-04-11T06:18:12.297Z,0.81
2017-04-11T06:19:12.831Z,1.09
2017-04-11T06:20:13.507Z,1.27
2017-04-11T06:21:13.892Z,0.99
2017-04-11T06:22:14.445Z,0.72
2017-04-11T06:23:14.957Z,2.02
2017-04-11T06:24:15.491Z,1.65
2017-04-11T06:25:16.028Z,1.00
2017-04-11T06:26:16.713Z,0.72
2017-04-11T06:27:17.100Z,1.09
2017-04-11T06:28:17.633Z,0.90
2017-04-11T06:29:18.171Z,1.37
2017-04-11T06:30:18.704Z,1.84
2017-04-11T06:32:19.768Z,1.46
2017-04-11T06:33:20.303Z,1.19
2017-04-11T06:34:20.830Z,2.30
2017-04-11T06:35:21.521Z,1.28
2017-04-11T06:36:21.900Z,0.91
2017-04-11T06:37:22.427Z,1.10
2017-04-11T06:38:23.107Z,1.00
2017-04-11T06:39:23.494Z,1.10
2017-04-11T06:40:24.023Z,0.72
2017-04-11T06:41:24.699Z,1.20
2017-04-11T06:42:25.082Z,0.91
2017-04-11T06:44:26.146Z,1.76
2017-04-11T06:45:26.679Z,1.01
2017-04-11T06:46:27.209Z,0.83
2017-04-11T06:47:27.741Z,1.20
2017-04-11T06:48:28.275Z,0.91
2017-04-11T06:50:29.337Z,1.20
2017-04-11T06:51:29.867Z,1.67
2017-04-11T06:52:30.398Z,1.48
2017-04-11T06:53:30.931Z,2.23
2017-04-11T06:54:31.459Z,1.48
2017-04-11T06:55:31.990Z,1.95
2017-04-11T06:56:32.526Z,2.22
2017-04-11T06:57:33.197Z,2.50
2017-04-11T06:58:33.731Z,1.95
2017-04-11T06:59:34.112Z,2.22
2017-04-11T07:00:34.651Z,1.37
2017-04-11T07:01:35.178Z,3.06
2017-04-11T07:02:35.709Z,2.32
2017-04-11T07:03:36.245Z,1.75
2017-04-11T07:04:36.772Z,1.20
2017-04-11T07:05:37.324Z,2.23
2017-04-11T07:06:37.990Z,1.19
2017-04-11T07:07:38.375Z,1.01
2017-04-11T07:09:39.443Z,3.04
2017-04-11T07:10:39.975Z,1.38
2017-04-11T07:11:40.509Z,1.29
2017-04-11T07:12:41.049Z,1.76
2017-04-11T07:13:41.568Z,1.38
2017-04-11T07:14:42.250Z,1.29
2017-04-11T07:15:42.639Z,1.29
2017-04-11T07:16:43.318Z,1.48
2017-04-11T07:17:43.697Z,2.12
2017-04-11T07:18:44.376Z,1.66
2017-04-11T07:19:44.906Z,1.48
2017-04-11T07:20:45.289Z,1.47
2017-04-11T07:21:45.819Z,1.20
2017-04-11T07:22:46.498Z,1.39
2017-04-11T07:23:46.880Z,2.12
2017-04-11T07:24:47.557Z,1.95
2017-04-11T07:25:47.943Z,1.95
2017-04-11T07:26:48.622Z,1.20
2017-04-11T07:27:49.005Z,1.39
2017-04-11T07:28:49.535Z,1.66
2017-04-11T07:29:50.063Z,1.95
2017-04-11T07:30:50.632Z,1.57
2017-04-11T07:31:51.128Z,1.66
2017-04-11T07:32:51.659Z,1.38
2017-04-11T07:33:52.186Z,1.94
2017-04-11T07:34:52.716Z,2.13
2017-04-11T07:35:53.250Z,2.03
2017-04-11T07:36:53.932Z,1.29
2017-04-11T07:37:54.315Z,1.85
2017-04-11T07:38:54.849Z,1.76
2017-04-11T07:39:55.374Z,1.47
2017-04-11T07:40:55.943Z,1.00
2017-04-11T07:41:56.437Z,0.83
2017-04-11T07:42:56.965Z,1.11
2017-04-11T07:43:57.497Z,1.57
2017-04-11T07:44:58.028Z,1.57
2017-04-11T07:45:58.557Z,1.38
2017-04-11T07:46:59.088Z,2.87
2017-04-11T07:47:59.627Z,1.37
2017-04-11T07:49:00.161Z,1.76
2017-04-11T07:50:00.692Z,1.66
2017-04-11T07:51:01.376Z,1.58
2017-04-11T07:52:01.757Z,2.51
2017-04-11T07:53:02.285Z,2.31
2017-04-11T07:54:02.815Z,2.95
2017-04-11T07:55:03.377Z,2.08
2017-04-11T07:56:03.881Z,1.57
2017-04-11T07:57:04.415Z,2.50
2017-04-11T07:58:04.947Z,1.66
2017-04-11T07:59:05.473Z,2.03
2017-04-11T08:00:06.002Z,1.57
2017-04-11T08:01:06.537Z,1.85
2017-04-11T08:02:07.070Z,2.76
2017-04-11T08:03:07.599Z,2.41
2017-04-11T08:04:08.128Z,2.69
2017-04-11T08:05:08.657Z,2.02
2017-04-11T08:06:09.191Z,2.32
2017-04-11T08:07:09.722Z,2.97
2017-04-11T08:08:10.251Z,2.13
2017-04-11T08:09:10.781Z,1.94
2017-04-11T08:10:11.315Z,1.95
2017-04-11T08:11:11.845Z,2.69
2017-04-11T08:12:12.384Z,1.66
2017-04-11T08:13:12.906Z,1.85
2017-04-11T08:14:13.439Z,1.38
2017-04-11T08:15:13.969Z,2.03
2017-04-11T08:16:14.506Z,2.31
2017-04-11T08:17:15.038Z,1.10
2017-04-11T08:18:15.567Z,2.59
2017-04-11T08:19:16.095Z,1.85
2017-04-11T08:20:16.624Z,1.85
2017-04-11T08:21:17.157Z,2.03
2017-04-11T08:23:18.225Z,2.75
2017-04-11T08:24:18.754Z,1.20
2017-04-11T08:25:19.293Z,3.42
2017-04-11T08:26:19.817Z,2.23
2017-04-11T08:27:20.352Z,2.22
2017-04-11T08:28:20.885Z,2.12
2017-04-11T08:29:21.431Z,1.57
2017-04-11T08:30:21.959Z,2.22
2017-04-11T08:31:22.489Z,1.39
2017-04-11T08:32:23.027Z,1.39
2017-04-11T08:33:23.696Z,2.20
2017-04-11T08:34:24.076Z,1.76
2017-04-11T08:35:24.608Z,1.57
2017-04-11T08:36:25.137Z,1.85
2017-04-11T08:37:25.672Z,3.62
2017-04-11T08:38:26.204Z,3.25
2017-04-11T08:39:27.005Z,1.76
2017-04-11T08:40:27.268Z,1.19
2017-04-11T08:41:27.789Z,2.49
2017-04-11T08:42:28.347Z,1.94
2017-04-11T08:43:28.857Z,1.11
2017-04-11T08:44:29.387Z,2.13
2017-04-11T08:45:29.915Z,1.85
2017-04-11T08:46:30.447Z,1.28
2017-04-11T08:47:30.989Z,1.94
2017-04-11T08:48:31.520Z,2.40
2017-04-11T08:49:32.043Z,2.47
2017-04-11T08:50:32.575Z,2.78
2017-04-11T08:51:33.114Z,2.87
2017-04-11T08:52:33.638Z,2.78
2017-04-11T08:53:34.170Z,1.48
2017-04-11T08:54:34.700Z,3.24
2017-04-11T08:55:35.224Z,2.96
2017-04-11T08:56:35.757Z,3.12
2017-04-11T08:57:36.304Z,2.36
2017-04-11T08:58:36.820Z,1.75
2017-04-11T08:59:37.387Z,1.48
2017-04-11T09:00:37.884Z,3.33
2017-04-11T09:01:38.412Z,2.95
2017-04-11T09:02:38.945Z,2.22
2017-04-11T09:03:39.511Z,2.31
2017-04-11T09:04:40.011Z,2.59
2017-04-11T09:05:40.537Z,2.87
2017-04-11T09:06:41.220Z,2.50
2017-04-11T09:07:41.612Z,1.85
2017-04-11T09:08:42.142Z,1.38
2017-04-11T09:09:42.675Z,1.65
2017-04-11T09:10:43.355Z,2.77
2017-04-11T09:11:43.761Z,2.29
2017-04-11T09:12:44.280Z,1.38
2017-04-11T09:13:44.808Z,2.38
2017-04-11T09:14:45.342Z,2.03
2017-04-11T09:15:45.874Z,2.41
2017-04-11T09:16:46.399Z,2.69
2017-04-11T09:17:46.933Z,2.96
2017-04-11T09:18:47.465Z,2.59
2017-04-11T09:19:47.991Z,2.32
2017-04-11T09:20:48.669Z,2.60
2017-04-11T09:21:49.207Z,2.73
2017-04-11T09:22:49.580Z,2.50
2017-04-11T09:23:50.259Z,2.58
2017-04-11T09:24:50.638Z,2.04
2017-04-11T09:25:51.169Z,1.57
2017-04-11T09:26:51.697Z,1.57
2017-04-11T09:27:52.376Z,1.94
2017-04-11T09:28:52.756Z,1.69
2017-04-11T09:29:53.286Z,1.38
2017-04-11T09:30:53.815Z,3.22
2017-04-11T09:31:54.350Z,2.85
2017-04-11T09:32:54.876Z,1.48
2017-04-11T09:33:55.416Z,1.94
2017-04-11T09:34:55.946Z,2.87
2017-04-11T09:35:56.471Z,2.04
2017-04-11T09:36:57.002Z,2.32
2017-04-11T09:37:57.530Z,2.22
2017-04-11T09:38:58.205Z,1.57
2017-04-11T09:39:58.591Z,2.23
2017-04-11T09:40:59.124Z,2.03
2017-04-11T09:41:59.795Z,1.66
2017-04-11T09:43:00.176Z,2.85
2017-04-11T09:44:00.705Z,1.67
2017-04-11T09:45:01.237Z,1.67
2017-04-11T09:46:01.768Z,1.57
2017-04-11T09:47:02.306Z,1.57
2017-04-11T09:48:02.860Z,2.31
2017-04-11T09:49:03.367Z,2.76
2017-04-11T09:50:03.901Z,1.94
2017-04-11T09:51:04.434Z,2.94
2017-04-11T09:52:04.970Z,2.21
2017-04-11T09:53:05.505Z,2.46
2017-04-11T09:54:06.032Z,2.03
2017-04-11T09:55:06.566Z,1.75
2017-04-11T09:56:07.102Z,1.58
2017-04-11T09:57:07.633Z,2.85
2017-04-11T09:58:08.310Z,1.67
2017-04-11T09:59:08.745Z,2.75
2017-04-11T10:00:09.218Z,2.67
2017-04-11T10:01:09.752Z,2.50
2017-04-11T10:02:10.430Z,2.77
2017-04-11T10:03:10.814Z,1.76
2017-04-11T10:04:11.343Z,2.32
2017-04-11T10:05:11.875Z,2.04
2017-04-11T10:06:12.411Z,2.59
2017-04-11T10:07:12.937Z,1.33
2017-04-11T10:08:13.471Z,2.04
2017-04-11T10:09:14.002Z,2.69
2017-04-11T10:10:14.530Z,2.22
2017-04-11T10:11:15.064Z,2.41
2017-04-11T10:12:15.591Z,2.03
2017-04-11T10:13:16.127Z,2.59
2017-04-11T10:14:16.805Z,1.67
2017-04-11T10:15:17.189Z,2.32
2017-04-11T10:16:17.869Z,1.94
2017-04-11T10:17:18.249Z,2.69
2017-04-11T10:18:18.778Z,2.87
2017-04-11T10:19:19.308Z,2.69
2017-04-11T10:20:19.840Z,2.49
2017-04-11T10:21:20.376Z,2.04
2017-04-11T10:22:20.916Z,3.95
2017-04-11T10:23:21.430Z,3.58
2017-04-11T10:24:21.972Z,3.37
2017-04-11T10:25:22.498Z,3.35
2017-04-11T10:26:23.023Z,2.04
2017-04-11T10:27:23.552Z,2.22
2017-04-11T10:28:24.080Z,2.23
2017-04-11T10:29:24.613Z,2.58
2017-04-11T10:30:25.147Z,2.69
2017-04-11T10:31:25.681Z,2.41
2017-04-11T10:32:26.221Z,2.67
2017-04-11T10:33:26.754Z,2.32
2017-04-11T10:34:27.284Z,2.68
2017-04-11T10:35:27.821Z,1.94
2017-04-11T10:36:28.349Z,2.60
2017-04-11T10:37:28.882Z,2.69
2017-04-11T10:38:29.418Z,2.68
2017-04-11T10:39:29.940Z,2.41
2017-04-11T10:40:30.471Z,4.01
2017-04-11T10:41:31.002Z,3.24
2017-04-11T10:42:31.529Z,3.35
2017-04-11T10:43:32.060Z,3.15
2017-04-11T10:44:32.593Z,2.01
2017-04-11T10:45:33.123Z,2.40
2017-04-11T10:46:33.657Z,2.51
2017-04-11T10:47:34.331Z,1.75
2017-04-11T10:48:34.715Z,1.39
2017-04-11T10:49:35.247Z,2.76
2017-04-11T10:50:35.779Z,2.60
2017-04-11T10:51:36.321Z,2.69
2017-04-11T10:52:36.994Z,2.64
2017-04-11T10:53:37.375Z,2.14
2017-04-11T10:54:37.908Z,1.95
2017-04-11T10:55:38.443Z,2.40
2017-04-11T10:56:38.968Z,1.95
2017-04-11T10:57:39.506Z,2.69
2017-04-11T10:58:40.034Z,2.33
2017-04-11T10:59:40.569Z,4.25
2017-04-11T11:00:41.098Z,1.95
2017-04-11T11:01:41.629Z,2.97
2017-04-11T11:02:42.169Z,2.13
2017-04-11T11:03:42.693Z,3.07
2017-04-11T11:04:43.220Z,1.39
2017-04-11T11:05:43.755Z,3.69
2017-04-11T11:06:44.283Z,4.10
2017-04-11T11:07:44.813Z,2.13
2017-04-11T11:08:45.339Z,1.95
2017-04-11T11:09:45.877Z,1.39
2017-04-11T11:10:46.406Z,2.70
2017-04-11T11:11:46.938Z,2.96
2017-04-11T11:12:47.468Z,1.85
2017-04-11T11:13:48.013Z,3.16
2017-04-11T11:14:48.574Z,4.29
2017-04-11T11:15:49.075Z,2.40
2017-04-11T11:16:49.755Z,2.31
2017-04-11T11:17:50.138Z,3.70
2017-04-11T11:18:50.685Z,3.06
2017-04-11T11:19:51.199Z,4.03
2017-04-11T11:20:51.730Z,3.50
2017-04-11T11:21:52.267Z,2.93
2017-04-11T11:22:52.789Z,3.58
2017-04-11T11:23:53.320Z,2.66
2017-04-11T11:24:53.859Z,3.39
2017-04-11T11:25:54.382Z,1.95
2017-04-11T11:26:54.948Z,3.61
2017-04-11T11:27:55.452Z,2.13
2017-04-11T11:28:55.969Z,3.33
2017-04-11T11:29:56.508Z,3.71
2017-04-11T11:30:57.038Z,3.32
2017-04-11T11:31:57.564Z,3.62
2017-04-11T11:32:58.109Z,2.89
2017-04-11T11:33:58.629Z,3.06
2017-04-11T11:34:59.164Z,3.06
2017-04-11T11:35:59.688Z,3.10
2017-04-11T11:37:00.365Z,2.57
2017-04-11T11:38:00.745Z,2.40
2017-04-11T11:39:01.278Z,4.88
2017-04-11T11:40:01.833Z,2.58
2017-04-11T11:41:02.331Z,2.50
2017-04-11T11:42:02.869Z,2.69
2017-04-11T11:43:03.399Z,4.23
2017-04-11T11:44:03.930Z,4.49
2017-04-11T11:45:04.613Z,2.20
2017-04-11T11:46:04.998Z,2.67
2017-04-11T11:47:05.521Z,4.07
2017-04-11T11:48:06.054Z,3.90
2017-04-11T11:49:06.580Z,4.69
2017-04-11T11:50:07.112Z,3.24
2017-04-11T11:51:07.645Z,4.36
2017-04-11T11:52:08.181Z,3.25
2017-04-11T11:53:08.713Z,2.31
2017-04-11T11:54:09.250Z,2.03
2017-04-11T11:55:09.786Z,2.98
2017-04-11T11:56:10.319Z,1.95
2017-04-11T11:57:10.853Z,1.67
2017-04-11T11:58:11.389Z,2.76
2017-04-11T11:59:12.062Z,2.59
2017-04-11T12:00:12.447Z,1.58
2017-04-11T12:01:12.977Z,2.78
2017-04-11T12:02:13.512Z,2.91
2017-04-11T12:03:14.042Z,2.69
2017-04-11T12:04:14.568Z,2.68
2017-04-11T12:05:15.098Z,3.04
2017-04-11T12:06:15.629Z,3.16
2017-04-11T12:07:16.156Z,2.23
2017-04-11T12:08:16.687Z,3.39
2017-04-11T12:09:17.218Z,2.58
2017-04-11T12:10:17.747Z,2.93
2017-04-11T12:11:18.277Z,2.77
2017-04-11T12:12:18.812Z,3.97
2017-04-11T12:13:19.351Z,3.66
2017-04-11T12:14:19.873Z,3.34
2017-04-11T12:15:20.409Z,2.69
2017-04-11T12:16:21.118Z,3.12
2017-04-11T12:17:21.466Z,3.12
2017-04-11T12:18:21.996Z,3.69
2017-04-11T12:19:22.676Z,3.44
2017-04-11T12:20:23.056Z,3.07
2017-04-11T12:21:23.588Z,2.87
2017-04-11T12:22:24.117Z,4.40
2017-04-11T12:23:24.646Z,3.76
2017-04-11T12:24:25.176Z,3.72
2017-04-11T12:25:25.717Z,3.42
2017-04-11T12:26:26.242Z,2.68
2017-04-11T12:27:26.770Z,4.71
2017-04-11T12:28:27.300Z,2.88
2017-04-11T12:29:27.829Z,2.32
2017-04-11T12:30:28.360Z,3.06
2017-04-11T12:31:29.041Z,2.04
2017-04-11T12:32:29.431Z,3.33
2017-04-11T12:33:29.960Z,2.13
2017-04-11T12:34:30.488Z,1.39
2017-04-11T12:35:31.174Z,2.41
2017-04-11T12:36:31.707Z,2.33
2017-04-11T12:37:32.089Z,2.87
2017-04-11T12:38:32.623Z,3.32
2017-04-11T12:39:33.153Z,3.06
2017-04-11T12:40:33.685Z,3.52
2017-04-11T12:41:34.216Z,3.61
2017-04-11T12:42:34.752Z,2.69
2017-04-11T12:43:35.285Z,3.74
2017-04-11T12:44:35.815Z,2.13
2017-04-11T12:45:36.357Z,2.60
2017-04-11T12:46:36.876Z,4.65
2017-04-11T12:47:37.558Z,2.23
2017-04-11T12:48:37.951Z,2.60
2017-04-11T12:49:38.472Z,2.04
2017-04-11T12:50:39.005Z,0.92
2017-04-11T12:51:39.534Z,1.28
2017-04-11T12:52:40.067Z,1.48
2017-04-11T12:53:40.599Z,2.77
2017-04-11T12:54:41.127Z,3.52
2017-04-11T12:55:41.659Z,3.05
2017-04-11T12:56:42.190Z,2.95
2017-04-11T12:57:42.756Z,2.86
2017-04-11T12:58:43.252Z,2.32
2017-04-11T12:59:43.793Z,2.75
2017-04-11T13:00:44.357Z,2.41
2017-04-11T13:01:44.851Z,1.02
2017-04-11T13:02:45.379Z,1.67
2017-04-11T13:03:45.912Z,1.48
2017-04-11T13:04:46.444Z,1.86
2017-04-11T13:05:46.967Z,2.95
2017-04-11T13:06:47.498Z,3.25
2017-04-11T13:07:48.031Z,2.79
2017-04-11T13:08:48.557Z,1.11
2017-04-11T13:09:49.101Z,2.77
2017-04-11T13:10:49.624Z,2.71
2017-04-11T13:11:50.154Z,2.14
2017-04-11T13:12:50.685Z,2.23
2017-04-11T13:13:51.228Z,2.32
2017-04-11T13:14:51.761Z,2.78
2017-04-11T13:15:52.299Z,2.23
2017-04-11T13:16:52.823Z,2.04
2017-04-11T13:17:53.364Z,2.96
2017-04-11T13:18:53.891Z,2.69
2017-04-11T13:19:54.421Z,2.32
2017-04-11T13:20:55.100Z,2.12
2017-04-11T13:21:55.482Z,1.52
2017-04-11T13:22:56.011Z,1.01
2017-04-11T13:23:56.694Z,1.28
2017-04-11T13:24:57.077Z,2.21
2017-04-11T13:25:57.600Z,2.69
2017-04-11T13:26:58.133Z,3.82
2017-04-11T13:27:58.667Z,2.96
2017-04-11T13:28:59.197Z,2.13
2017-04-11T13:29:59.730Z,1.20
2017-04-11T13:31:00.264Z,2.59
2017-04-11T13:32:00.942Z,1.39